sensor_id;sensor_type;location;lat;lon;timestamp;pressure;altitude;pressure_sealevel;temperature;humidity
63033;BME280;49121;38.932;-9.018;2022-08-19T00:01:39;101354.28;;;23.45;37.35
63033;BME280;49121;38.932;-9.018;2022-08-19T00:03:40;101355.84;;;23.49;37.21
63033;BME280;49121;38.932;-9.018;2022-08-19T00:05:40;101354.63;;;23.55;37.21
63033;BME280;49121;38.932;-9.018;2022-08-19T00:10:01;101362.78;;;23.53;37.42
63033;BME280;49121;38.932;-9.018;2022-08-19T00:12:01;101352.03;;;23.53;37.16
63033;BME280;49121;38.932;-9.018;2022-08-19T00:14:02;101357.31;;;23.55;37.27
63033;BME280;49121;38.932;-9.018;2022-08-19T00:16:04;101349.50;;;23.50;37.51
63033;BME280;49121;38.932;-9.018;2022-08-19T00:18:05;101352.38;;;23.47;37.69
63033;BME280;49121;38.932;-9.018;2022-08-19T00:20:06;101347.00;;;23.47;37.71
63033;BME280;49121;38.932;-9.018;2022-08-19T00:22:07;101342.59;;;23.46;37.47
63033;BME280;49121;38.932;-9.018;2022-08-19T00:24:09;101359.06;;;23.40;37.74
63033;BME280;49121;38.932;-9.018;2022-08-19T00:26:10;101340.88;;;23.29;38.35
63033;BME280;49121;38.932;-9.018;2022-08-19T00:28:26;101345.72;;;23.22;38.14
63033;BME280;49121;38.932;-9.018;2022-08-19T00:30:26;101344.31;;;23.15;38.42
63033;BME280;49121;38.932;-9.018;2022-08-19T00:32:27;101347.53;;;23.06;38.54
63033;BME280;49121;38.932;-9.018;2022-08-19T00:36:47;101342.06;;;23.08;38.71
63033;BME280;49121;38.932;-9.018;2022-08-19T00:38:48;101339.66;;;23.19;38.10
63033;BME280;49121;38.932;-9.018;2022-08-19T00:40:49;101348.81;;;23.31;38.04
63033;BME280;49121;38.932;-9.018;2022-08-19T00:42:50;101341.47;;;23.34;38.05
63033;BME280;49121;38.932;-9.018;2022-08-19T00:44:53;101333.13;;;23.39;37.74
63033;BME280;49121;38.932;-9.018;2022-08-19T00:46:55;101332.97;;;23.42;37.95
63033;BME280;49121;38.932;-9.018;2022-08-19T00:51:17;101338.34;;;23.42;38.10
63033;BME280;49121;38.932;-9.018;2022-08-19T00:53:19;101333.75;;;23.44;37.85
63033;BME280;49121;38.932;-9.018;2022-08-19T00:55:21;101328.91;;;23.51;37.40
63033;BME280;49121;38.932;-9.018;2022-08-19T00:57:44;101334.28;;;23.51;37.41
63033;BME280;49121;38.932;-9.018;2022-08-19T00:59:48;101336.19;;;23.48;37.47
63033;BME280;49121;38.932;-9.018;2022-08-19T01:01:52;101334.19;;;23.36;38.06
63033;BME280;49121;38.932;-9.018;2022-08-19T01:03:53;101330.78;;;23.33;38.11
63033;BME280;49121;38.932;-9.018;2022-08-19T01:05:53;101329.78;;;23.35;37.77
63033;BME280;49121;38.932;-9.018;2022-08-19T01:07:58;101327.44;;;23.29;37.95
63033;BME280;49121;38.932;-9.018;2022-08-19T01:09:59;101329.34;;;23.27;38.20
63033;BME280;49121;38.932;-9.018;2022-08-19T01:12:00;101326.91;;;23.22;38.04
63033;BME280;49121;38.932;-9.018;2022-08-19T01:14:02;101331.22;;;23.09;38.52
63033;BME280;49121;38.932;-9.018;2022-08-19T01:16:04;101329.34;;;22.94;38.84
63033;BME280;49121;38.932;-9.018;2022-08-19T01:18:06;101324.06;;;22.92;38.64
63033;BME280;49121;38.932;-9.018;2022-08-19T01:20:09;101324.25;;;22.89;38.98
63033;BME280;49121;38.932;-9.018;2022-08-19T01:22:12;101322.88;;;22.98;38.74
63033;BME280;49121;38.932;-9.018;2022-08-19T01:24:14;101329.06;;;23.16;38.17
63033;BME280;49121;38.932;-9.018;2022-08-19T01:26:20;101331.84;;;23.14;38.36
63033;BME280;49121;38.932;-9.018;2022-08-19T01:28:23;101328.63;;;23.23;38.07
63033;BME280;49121;38.932;-9.018;2022-08-19T01:30:27;101334.97;;;23.22;38.07
63033;BME280;49121;38.932;-9.018;2022-08-19T01:32:48;101337.03;;;23.17;37.99
63033;BME280;49121;38.932;-9.018;2022-08-19T01:35:07;101336.69;;;23.23;37.73
63033;BME280;49121;38.932;-9.018;2022-08-19T01:37:08;101340.88;;;23.29;37.99
63033;BME280;49121;38.932;-9.018;2022-08-19T01:39:12;101336.78;;;23.38;37.66
63033;BME280;49121;38.932;-9.018;2022-08-19T01:41:13;101337.06;;;23.33;37.78
63033;BME280;49121;38.932;-9.018;2022-08-19T01:45:33;101331.31;;;23.23;37.87
63033;BME280;49121;38.932;-9.018;2022-08-19T01:47:37;101329.41;;;23.25;37.67
63033;BME280;49121;38.932;-9.018;2022-08-19T01:49:38;101338.88;;;23.17;37.93
63033;BME280;49121;38.932;-9.018;2022-08-19T01:51:38;101336.59;;;23.09;37.96
63033;BME280;49121;38.932;-9.018;2022-08-19T01:53:39;101332.38;;;22.87;38.91
63033;BME280;49121;38.932;-9.018;2022-08-19T01:55:41;101324.47;;;22.69;39.33
63033;BME280;49121;38.932;-9.018;2022-08-19T01:57:42;101334.66;;;22.62;39.17
63033;BME280;49121;38.932;-9.018;2022-08-19T01:59:44;101333.59;;;22.49;39.53
63033;BME280;49121;38.932;-9.018;2022-08-19T02:01:45;101335.97;;;22.37;39.78
63033;BME280;49121;38.932;-9.018;2022-08-19T02:03:45;101332.91;;;22.28;40.17
63033;BME280;49121;38.932;-9.018;2022-08-19T02:06:05;101342.44;;;22.16;40.14
63033;BME280;49121;38.932;-9.018;2022-08-19T02:08:05;101343.66;;;21.91;41.08
63033;BME280;49121;38.932;-9.018;2022-08-19T02:10:08;101339.03;;;21.77;41.30
63033;BME280;49121;38.932;-9.018;2022-08-19T02:12:08;101335.34;;;21.61;41.92
63033;BME280;49121;38.932;-9.018;2022-08-19T02:14:09;101338.50;;;21.52;41.71
63033;BME280;49121;38.932;-9.018;2022-08-19T02:16:10;101332.72;;;21.42;42.05
63033;BME280;49121;38.932;-9.018;2022-08-19T02:18:10;101326.84;;;21.34;42.10
63033;BME280;49121;38.932;-9.018;2022-08-19T02:20:11;101330.97;;;21.22;42.81
63033;BME280;49121;38.932;-9.018;2022-08-19T02:24:32;101324.03;;;21.18;42.69
63033;BME280;49121;38.932;-9.018;2022-08-19T02:26:35;101326.69;;;21.18;42.87
63033;BME280;49121;38.932;-9.018;2022-08-19T02:28:40;101319.19;;;21.07;42.92
63033;BME280;49121;38.932;-9.018;2022-08-19T02:30:45;101325.50;;;21.06;43.06
63033;BME280;49121;38.932;-9.018;2022-08-19T02:32:46;101325.84;;;20.98;43.20
63033;BME280;49121;38.932;-9.018;2022-08-19T02:34:47;101326.28;;;20.89;43.54
63033;BME280;49121;38.932;-9.018;2022-08-19T02:36:47;101325.25;;;20.92;43.47
63033;BME280;49121;38.932;-9.018;2022-08-19T02:38:48;101325.25;;;20.92;43.61
63033;BME280;49121;38.932;-9.018;2022-08-19T02:40:49;101328.56;;;20.78;43.68
63033;BME280;49121;38.932;-9.018;2022-08-19T02:42:51;101323.78;;;20.66;44.57
63033;BME280;49121;38.932;-9.018;2022-08-19T02:47:29;101328.56;;;20.59;45.20
63033;BME280;49121;38.932;-9.018;2022-08-19T02:52:08;101335.09;;;20.31;45.39
63033;BME280;49121;38.932;-9.018;2022-08-19T02:54:09;101335.56;;;20.20;45.51
63033;BME280;49121;38.932;-9.018;2022-08-19T02:56:28;101338.00;;;20.05;45.75
63033;BME280;49121;38.932;-9.018;2022-08-19T03:00:49;101335.47;;;20.01;45.53
63033;BME280;49121;38.932;-9.018;2022-08-19T03:02:50;101335.34;;;20.05;45.75
63033;BME280;49121;38.932;-9.018;2022-08-19T03:04:51;101333.72;;;20.00;45.83
63033;BME280;49121;38.932;-9.018;2022-08-19T03:06:51;101336.03;;;20.10;45.40
63033;BME280;49121;38.932;-9.018;2022-08-19T03:08:52;101333.88;;;20.18;45.02
63033;BME280;49121;38.932;-9.018;2022-08-19T03:10:53;101332.34;;;20.12;45.27
63033;BME280;49121;38.932;-9.018;2022-08-19T03:12:54;101335.81;;;20.14;45.16
63033;BME280;49121;38.932;-9.018;2022-08-19T03:14:54;101330.00;;;20.25;44.73
63033;BME280;49121;38.932;-9.018;2022-08-19T03:16:55;101336.69;;;20.35;44.10
63033;BME280;49121;38.932;-9.018;2022-08-19T03:18:56;101334.69;;;20.40;44.13
63033;BME280;49121;38.932;-9.018;2022-08-19T03:20:57;101333.41;;;20.49;44.16
63033;BME280;49121;38.932;-9.018;2022-08-19T03:22:57;101327.66;;;20.58;43.60
63033;BME280;49121;38.932;-9.018;2022-08-19T03:24:58;101338.59;;;20.52;43.88
63033;BME280;49121;38.932;-9.018;2022-08-19T03:26:59;101332.19;;;20.56;43.35
63033;BME280;49121;38.932;-9.018;2022-08-19T03:29:18;101335.56;;;20.61;43.30
63033;BME280;49121;38.932;-9.018;2022-08-19T03:31:38;101343.94;;;20.52;43.88
63033;BME280;49121;38.932;-9.018;2022-08-19T03:33:58;101337.41;;;20.39;44.23
63033;BME280;49121;38.932;-9.018;2022-08-19T03:36:18;101348.66;;;20.27;44.42
63033;BME280;49121;38.932;-9.018;2022-08-19T03:38:39;101341.72;;;20.22;44.32
63033;BME280;49121;38.932;-9.018;2022-08-19T03:40:40;101334.56;;;20.23;44.22
63033;BME280;49121;38.932;-9.018;2022-08-19T03:42:40;101338.38;;;20.38;43.31
63033;BME280;49121;38.932;-9.018;2022-08-19T03:45:00;101339.75;;;20.47;43.45
63033;BME280;49121;38.932;-9.018;2022-08-19T03:47:19;101344.50;;;20.40;43.68
63033;BME280;49121;38.932;-9.018;2022-08-19T03:49:20;101346.44;;;20.36;43.87
63033;BME280;49121;38.932;-9.018;2022-08-19T03:51:23;101348.66;;;20.27;44.16
63033;BME280;49121;38.932;-9.018;2022-08-19T03:53:28;101340.16;;;20.17;44.31
63033;BME280;49121;38.932;-9.018;2022-08-19T03:55:32;101351.16;;;20.09;44.25
63033;BME280;49121;38.932;-9.018;2022-08-19T03:57:33;101344.69;;;20.15;43.76
63033;BME280;49121;38.932;-9.018;2022-08-19T03:59:35;101355.94;;;20.23;43.90
63033;BME280;49121;38.932;-9.018;2022-08-19T04:01:36;101356.19;;;20.17;44.04
63033;BME280;49121;38.932;-9.018;2022-08-19T04:03:37;101361.69;;;20.14;44.16
63033;BME280;49121;38.932;-9.018;2022-08-19T04:05:37;101351.06;;;20.12;44.20
63033;BME280;49121;38.932;-9.018;2022-08-19T04:07:38;101360.13;;;20.08;44.22
63033;BME280;49121;38.932;-9.018;2022-08-19T04:09:38;101347.53;;;20.12;44.18
63033;BME280;49121;38.932;-9.018;2022-08-19T04:11:40;101354.66;;;20.11;43.92
63033;BME280;49121;38.932;-9.018;2022-08-19T04:13:41;101351.34;;;20.27;43.43
63033;BME280;49121;38.932;-9.018;2022-08-19T04:15:44;101349.38;;;20.30;43.72
63033;BME280;49121;38.932;-9.018;2022-08-19T04:17:46;101352.00;;;20.32;43.39
63033;BME280;49121;38.932;-9.018;2022-08-19T04:19:51;101354.66;;;20.32;43.23
63033;BME280;49121;38.932;-9.018;2022-08-19T04:21:52;101354.06;;;20.25;43.34
63033;BME280;49121;38.932;-9.018;2022-08-19T04:23:53;101362.81;;;20.29;43.11
63033;BME280;49121;38.932;-9.018;2022-08-19T04:30:55;101362.66;;;19.91;44.55
63033;BME280;49121;38.932;-9.018;2022-08-19T04:32:55;101360.44;;;19.80;44.77
63033;BME280;49121;38.932;-9.018;2022-08-19T04:34:56;101360.34;;;19.81;44.64
63033;BME280;49121;38.932;-9.018;2022-08-19T04:36:58;101361.78;;;19.90;44.13
63033;BME280;49121;38.932;-9.018;2022-08-19T04:41:37;101357.19;;;19.72;44.78
63033;BME280;49121;38.932;-9.018;2022-08-19T04:44:14;101363.47;;;19.71;44.75
63033;BME280;49121;38.932;-9.018;2022-08-19T04:46:18;101365.44;;;19.66;44.82
63033;BME280;49121;38.932;-9.018;2022-08-19T04:48:20;101365.28;;;19.69;44.74
63033;BME280;49121;38.932;-9.018;2022-08-19T04:52:50;101367.75;;;19.75;44.24
63033;BME280;49121;38.932;-9.018;2022-08-19T04:54:50;101376.91;;;19.68;44.67
63033;BME280;49121;38.932;-9.018;2022-08-19T04:56:51;101375.53;;;19.57;44.90
63033;BME280;49121;38.932;-9.018;2022-08-19T04:58:53;101370.34;;;19.54;45.15
63033;BME280;49121;38.932;-9.018;2022-08-19T05:00:53;101374.69;;;19.57;44.55
63033;BME280;49121;38.932;-9.018;2022-08-19T05:02:54;101373.69;;;19.59;44.84
63033;BME280;49121;38.932;-9.018;2022-08-19T05:04:58;101373.06;;;19.53;45.01
63033;BME280;49121;38.932;-9.018;2022-08-19T05:07:01;101376.72;;;19.50;45.06
63033;BME280;49121;38.932;-9.018;2022-08-19T05:09:03;101375.19;;;19.67;44.51
63033;BME280;49121;38.932;-9.018;2022-08-19T05:11:08;101375.19;;;19.67;44.41
63033;BME280;49121;38.932;-9.018;2022-08-19T05:13:09;101378.84;;;19.64;44.33
63033;BME280;49121;38.932;-9.018;2022-08-19T05:15:11;101378.16;;;19.59;44.51
63033;BME280;49121;38.932;-9.018;2022-08-19T05:17:29;101376.59;;;19.53;44.87
63033;BME280;49121;38.932;-9.018;2022-08-19T05:19:30;101381.59;;;19.63;44.45
63033;BME280;49121;38.932;-9.018;2022-08-19T05:21:49;101371.78;;;19.63;44.30
63033;BME280;49121;38.932;-9.018;2022-08-19T05:29:06;101381.66;;;19.61;44.19
63033;BME280;49121;38.932;-9.018;2022-08-19T05:34:01;101386.41;;;19.53;44.54
63033;BME280;49121;38.932;-9.018;2022-08-19T05:36:02;101378.41;;;19.53;44.40
63033;BME280;49121;38.932;-9.018;2022-08-19T05:38:02;101387.22;;;19.55;44.29
63033;BME280;49121;38.932;-9.018;2022-08-19T05:40:03;101385.19;;;19.61;43.99
63033;BME280;49121;38.932;-9.018;2022-08-19T05:42:05;101383.56;;;19.57;44.17
63033;BME280;49121;38.932;-9.018;2022-08-19T05:44:07;101388.66;;;19.64;44.02
63033;BME280;49121;38.932;-9.018;2022-08-19T05:46:15;101388.16;;;19.54;44.26
63033;BME280;49121;38.932;-9.018;2022-08-19T05:48:16;101387.47;;;19.49;44.51
63033;BME280;49121;38.932;-9.018;2022-08-19T05:50:21;101386.66;;;19.47;44.46
63033;BME280;49121;38.932;-9.018;2022-08-19T05:52:21;101388.47;;;19.46;44.42
63033;BME280;49121;38.932;-9.018;2022-08-19T05:54:22;101388.47;;;19.46;44.23
63033;BME280;49121;38.932;-9.018;2022-08-19T05:56:25;101397.28;;;19.48;44.16
63033;BME280;49121;38.932;-9.018;2022-08-19T05:58:44;101400.81;;;19.72;43.35
63033;BME280;49121;38.932;-9.018;2022-08-19T06:00:45;101396.88;;;19.81;43.17
63033;BME280;49121;38.932;-9.018;2022-08-19T06:02:46;101394.22;;;19.81;43.21
63033;BME280;49121;38.932;-9.018;2022-08-19T06:04:46;101409.91;;;19.90;42.76
63033;BME280;49121;38.932;-9.018;2022-08-19T06:06:47;101402.53;;;19.95;42.74
63033;BME280;49121;38.932;-9.018;2022-08-19T06:08:48;101409.56;;;19.98;42.50
63033;BME280;49121;38.932;-9.018;2022-08-19T06:10:50;101412.94;;;20.03;42.44
63033;BME280;49121;38.932;-9.018;2022-08-19T06:12:51;101414.97;;;20.18;41.86
63033;BME280;49121;38.932;-9.018;2022-08-19T06:14:56;101417.38;;;20.45;40.98
63033;BME280;49121;38.932;-9.018;2022-08-19T06:16:56;101411.19;;;20.65;40.46
63033;BME280;49121;38.932;-9.018;2022-08-19T06:18:59;101420.81;;;20.69;40.84
63033;BME280;49121;38.932;-9.018;2022-08-19T06:20:59;101420.63;;;20.74;40.90
63033;BME280;49121;38.932;-9.018;2022-08-19T06:23:03;101423.91;;;20.60;41.24
63033;BME280;49121;38.932;-9.018;2022-08-19T06:25:04;101430.13;;;20.81;40.01
63033;BME280;49121;38.932;-9.018;2022-08-19T06:27:04;101422.88;;;20.83;40.54
63033;BME280;49121;38.932;-9.018;2022-08-19T06:29:21;101425.28;;;20.89;40.35
63033;BME280;49121;38.932;-9.018;2022-08-19T06:31:26;101435.03;;;20.90;40.56
63033;BME280;49121;38.932;-9.018;2022-08-19T06:33:27;101432.91;;;20.98;40.36
63033;BME280;49121;38.932;-9.018;2022-08-19T06:35:27;101423.00;;;21.00;40.21
63033;BME280;49121;38.932;-9.018;2022-08-19T06:37:29;101431.28;;;20.94;40.52
63033;BME280;49121;38.932;-9.018;2022-08-19T06:39:31;101439.44;;;21.12;40.06
63033;BME280;49121;38.932;-9.018;2022-08-19T06:41:37;101429.69;;;21.30;39.31
63033;BME280;49121;38.932;-9.018;2022-08-19T06:43:37;101434.06;;;21.51;38.85
63033;BME280;49121;38.932;-9.018;2022-08-19T06:45:38;101437.16;;;21.61;38.75
63033;BME280;49121;38.932;-9.018;2022-08-19T06:47:39;101440.97;;;21.93;38.16
63033;BME280;49121;38.932;-9.018;2022-08-19T06:49:58;101436.94;;;22.91;37.10
63033;BME280;49121;38.932;-9.018;2022-08-19T06:52:03;101445.66;;;24.55;33.62
63033;BME280;49121;38.932;-9.018;2022-08-19T06:54:04;101441.31;;;25.96;31.21
63033;BME280;49121;38.932;-9.018;2022-08-19T06:58:43;101466.00;;;28.44;26.83
63033;BME280;49121;38.932;-9.018;2022-08-19T07:00:44;101459.47;;;28.82;26.05
63033;BME280;49121;38.932;-9.018;2022-08-19T07:02:45;101458.56;;;29.28;25.84
63033;BME280;49121;38.932;-9.018;2022-08-19T07:04:45;101461.75;;;29.79;25.39
63033;BME280;49121;38.932;-9.018;2022-08-19T07:06:46;101463.47;;;30.23;24.24
63033;BME280;49121;38.932;-9.018;2022-08-19T07:08:47;101457.59;;;30.39;24.04
63033;BME280;49121;38.932;-9.018;2022-08-19T07:10:47;101472.13;;;30.91;22.92
63033;BME280;49121;38.932;-9.018;2022-08-19T07:12:49;101462.38;;;31.10;22.81
63033;BME280;49121;38.932;-9.018;2022-08-19T07:14:50;101466.16;;;31.49;22.40
63033;BME280;49121;38.932;-9.018;2022-08-19T07:16:51;101472.38;;;31.71;22.09
63033;BME280;49121;38.932;-9.018;2022-08-19T07:18:52;101479.56;;;31.91;21.96
63033;BME280;49121;38.932;-9.018;2022-08-19T07:21:01;101487.25;;;32.27;21.62
63033;BME280;49121;38.932;-9.018;2022-08-19T07:23:06;101491.31;;;32.99;20.58
63033;BME280;49121;38.932;-9.018;2022-08-19T07:25:07;101492.91;;;33.02;20.26
63033;BME280;49121;38.932;-9.018;2022-08-19T07:27:08;101491.03;;;32.92;20.48
63033;BME280;49121;38.932;-9.018;2022-08-19T07:29:10;101500.28;;;32.62;21.53
63033;BME280;49121;38.932;-9.018;2022-08-19T07:31:11;101494.72;;;33.58;19.93
63033;BME280;49121;38.932;-9.018;2022-08-19T07:33:13;101486.66;;;33.56;20.04
63033;BME280;49121;38.932;-9.018;2022-08-19T07:35:13;101486.88;;;34.54;18.21
63033;BME280;49121;38.932;-9.018;2022-08-19T07:37:14;101494.56;;;33.32;19.32
63033;BME280;49121;38.932;-9.018;2022-08-19T07:39:22;101498.50;;;34.03;19.21
63033;BME280;49121;38.932;-9.018;2022-08-19T07:41:23;101488.63;;;34.19;18.66
63033;BME280;49121;38.932;-9.018;2022-08-19T07:43:25;101491.16;;;34.03;18.95
63033;BME280;49121;38.932;-9.018;2022-08-19T07:45:26;101490.19;;;34.22;18.81
63033;BME280;49121;38.932;-9.018;2022-08-19T07:47:28;101492.19;;;35.00;17.75
63033;BME280;49121;38.932;-9.018;2022-08-19T07:49:30;101496.56;;;34.49;18.90
63033;BME280;49121;38.932;-9.018;2022-08-19T07:51:30;101503.19;;;35.08;18.31
63033;BME280;49121;38.932;-9.018;2022-08-19T07:53:31;101497.16;;;35.22;17.66
63033;BME280;49121;38.932;-9.018;2022-08-19T07:55:32;101496.25;;;34.96;18.09
63033;BME280;49121;38.932;-9.018;2022-08-19T07:57:34;101511.09;;;35.37;17.86
63033;BME280;49121;38.932;-9.018;2022-08-19T07:59:34;101505.44;;;35.65;16.59
63033;BME280;49121;38.932;-9.018;2022-08-19T08:01:35;101500.13;;;35.72;17.29
63033;BME280;49121;38.932;-9.018;2022-08-19T08:03:36;101497.28;;;35.98;17.09
63033;BME280;49121;38.932;-9.018;2022-08-19T08:05:55;101504.59;;;36.64;16.08
63033;BME280;49121;38.932;-9.018;2022-08-19T08:08:14;101503.03;;;36.78;16.02
63033;BME280;49121;38.932;-9.018;2022-08-19T08:10:41;101512.41;;;37.17;15.80
63033;BME280;49121;38.932;-9.018;2022-08-19T08:12:42;101508.03;;;36.83;16.27
63033;BME280;49121;38.932;-9.018;2022-08-19T08:14:47;101500.94;;;37.05;15.48
63033;BME280;49121;38.932;-9.018;2022-08-19T08:16:48;101506.81;;;36.77;16.36
63033;BME280;49121;38.932;-9.018;2022-08-19T08:18:50;101507.25;;;37.30;15.47
63033;BME280;49121;38.932;-9.018;2022-08-19T08:20:50;101496.25;;;37.78;15.05
63033;BME280;49121;38.932;-9.018;2022-08-19T08:22:51;101505.50;;;37.37;15.61
63033;BME280;49121;38.932;-9.018;2022-08-19T08:25:29;101511.00;;;37.37;15.25
63033;BME280;49121;38.932;-9.018;2022-08-19T08:27:29;101506.25;;;37.07;15.28
63033;BME280;49121;38.932;-9.018;2022-08-19T08:29:31;101497.34;;;38.23;14.76
63033;BME280;49121;38.932;-9.018;2022-08-19T08:31:31;101498.50;;;38.52;14.26
63033;BME280;49121;38.932;-9.018;2022-08-19T08:33:34;101495.44;;;38.23;14.77
63033;BME280;49121;38.932;-9.018;2022-08-19T08:35:34;101491.97;;;38.30;15.07
63033;BME280;49121;38.932;-9.018;2022-08-19T08:37:35;101501.06;;;38.91;14.63
63033;BME280;49121;38.932;-9.018;2022-08-19T08:39:35;101499.50;;;39.56;13.52
63033;BME280;49121;38.932;-9.018;2022-08-19T08:41:42;101486.97;;;38.10;14.08
63033;BME280;49121;38.932;-9.018;2022-08-19T08:43:45;101499.03;;;38.01;14.22
63033;BME280;49121;38.932;-9.018;2022-08-19T08:45:49;101494.84;;;37.82;14.36
63033;BME280;49121;38.932;-9.018;2022-08-19T08:47:51;101493.88;;;37.98;14.29
63033;BME280;49121;38.932;-9.018;2022-08-19T08:49:55;101489.56;;;37.72;14.34
63033;BME280;49121;38.932;-9.018;2022-08-19T08:52:03;101493.63;;;38.16;14.18
63033;BME280;49121;38.932;-9.018;2022-08-19T08:54:06;101499.72;;;37.08;15.06
63033;BME280;49121;38.932;-9.018;2022-08-19T08:56:07;101497.03;;;36.50;15.79
63033;BME280;49121;38.932;-9.018;2022-08-19T09:00:51;101478.44;;;37.97;13.76
63033;BME280;49121;38.932;-9.018;2022-08-19T09:02:53;101488.47;;;36.78;14.66
63033;BME280;49121;38.932;-9.018;2022-08-19T09:04:54;101490.53;;;36.59;15.24
63033;BME280;49121;38.932;-9.018;2022-08-19T09:07:24;101491.72;;;36.73;15.37
63033;BME280;49121;38.932;-9.018;2022-08-19T09:09:29;101488.81;;;36.83;15.13
63033;BME280;49121;38.932;-9.018;2022-08-19T09:11:37;101484.81;;;37.02;15.05
63033;BME280;49121;38.932;-9.018;2022-08-19T09:15:48;101485.38;;;36.73;15.44
63033;BME280;49121;38.932;-9.018;2022-08-19T09:17:51;101489.47;;;36.93;15.67
63033;BME280;49121;38.932;-9.018;2022-08-19T09:19:53;101489.81;;;36.98;15.07
63033;BME280;49121;38.932;-9.018;2022-08-19T09:22:12;101486.00;;;37.55;14.64
63033;BME280;49121;38.932;-9.018;2022-08-19T09:24:13;101488.75;;;37.16;15.19
63033;BME280;49121;38.932;-9.018;2022-08-19T09:26:15;101489.81;;;36.98;15.09
63033;BME280;49121;38.932;-9.018;2022-08-19T09:28:16;101479.34;;;36.53;16.06
63033;BME280;49121;38.932;-9.018;2022-08-19T09:30:18;101482.47;;;36.50;16.46
63033;BME280;49121;38.932;-9.018;2022-08-19T09:32:20;101484.13;;;37.00;15.51
63033;BME280;49121;38.932;-9.018;2022-08-19T09:34:21;101487.75;;;37.00;14.84
63033;BME280;49121;38.932;-9.018;2022-08-19T09:36:22;101476.94;;;37.55;14.96
63033;BME280;49121;38.932;-9.018;2022-08-19T09:38:23;101484.50;;;36.56;15.36
63033;BME280;49121;38.932;-9.018;2022-08-19T09:40:24;101493.41;;;36.41;16.15
63033;BME280;49121;38.932;-9.018;2022-08-19T09:42:25;101497.22;;;36.49;16.43
63033;BME280;49121;38.932;-9.018;2022-08-19T09:44:26;101502.50;;;36.91;16.44
63033;BME280;49121;38.932;-9.018;2022-08-19T09:46:27;101503.38;;;36.75;17.22
63033;BME280;49121;38.932;-9.018;2022-08-19T09:48:28;101496.28;;;36.07;16.47
63033;BME280;49121;38.932;-9.018;2022-08-19T09:50:29;101505.25;;;36.26;16.35
63033;BME280;49121;38.932;-9.018;2022-08-19T09:52:38;101505.25;;;36.26;16.87
63033;BME280;49121;38.932;-9.018;2022-08-19T09:54:39;101505.69;;;36.04;16.49
63033;BME280;49121;38.932;-9.018;2022-08-19T09:56:39;101503.03;;;36.46;17.47
63033;BME280;49121;38.932;-9.018;2022-08-19T09:58:40;101508.50;;;37.11;16.84
63033;BME280;49121;38.932;-9.018;2022-08-19T10:02:59;101504.06;;;36.44;16.95
63033;BME280;49121;38.932;-9.018;2022-08-19T10:08:09;101506.72;;;35.95;16.90
63033;BME280;49121;38.932;-9.018;2022-08-19T10:10:29;101498.53;;;35.61;17.97
63033;BME280;49121;38.932;-9.018;2022-08-19T10:15:25;101509.03;;;36.66;16.71
63033;BME280;49121;38.932;-9.018;2022-08-19T10:17:44;101500.81;;;36.82;15.94
63033;BME280;49121;38.932;-9.018;2022-08-19T10:20:03;101494.78;;;37.11;16.29
63033;BME280;49121;38.932;-9.018;2022-08-19T10:22:05;101500.63;;;37.56;15.88
63033;BME280;49121;38.932;-9.018;2022-08-19T10:24:05;101497.00;;;38.03;15.63
63033;BME280;49121;38.932;-9.018;2022-08-19T10:26:06;101499.06;;;37.53;16.05
63033;BME280;49121;38.932;-9.018;2022-08-19T10:28:07;101505.75;;;37.19;16.04
63033;BME280;49121;38.932;-9.018;2022-08-19T10:30:08;101491.78;;;37.37;16.08
63033;BME280;49121;38.932;-9.018;2022-08-19T10:32:09;101496.66;;;37.67;15.12
63033;BME280;49121;38.932;-9.018;2022-08-19T10:34:10;101494.94;;;37.10;15.96
63033;BME280;49121;38.932;-9.018;2022-08-19T10:36:12;101495.31;;;36.41;16.33
63033;BME280;49121;38.932;-9.018;2022-08-19T10:38:17;101498.44;;;35.79;18.04
63033;BME280;49121;38.932;-9.018;2022-08-19T10:40:20;101498.31;;;35.20;17.92
63033;BME280;49121;38.932;-9.018;2022-08-19T10:42:21;101485.63;;;34.49;17.91
63033;BME280;49121;38.932;-9.018;2022-08-19T10:44:21;101478.41;;;34.21;18.60
63033;BME280;49121;38.932;-9.018;2022-08-19T10:46:23;101491.38;;;33.92;20.19
63033;BME280;49121;38.932;-9.018;2022-08-19T10:48:24;101479.66;;;33.64;19.61
63033;BME280;49121;38.932;-9.018;2022-08-19T10:50:25;101483.28;;;33.17;19.57
63033;BME280;49121;38.932;-9.018;2022-08-19T10:52:45;101481.78;;;33.32;20.26
63033;BME280;49121;38.932;-9.018;2022-08-19T10:54:46;101486.44;;;33.03;21.02
63033;BME280;49121;38.932;-9.018;2022-08-19T10:57:05;101483.72;;;32.93;21.14
63033;BME280;49121;38.932;-9.018;2022-08-19T10:59:05;101478.56;;;32.90;21.43
63033;BME280;49121;38.932;-9.018;2022-08-19T11:01:06;101476.16;;;32.87;21.81
63033;BME280;49121;38.932;-9.018;2022-08-19T11:03:07;101479.56;;;32.98;20.61
63033;BME280;49121;38.932;-9.018;2022-08-19T11:05:08;101474.97;;;33.09;21.51
63033;BME280;49121;38.932;-9.018;2022-08-19T11:07:29;101470.16;;;33.20;20.07
63033;BME280;49121;38.932;-9.018;2022-08-19T11:09:29;101469.13;;;33.31;21.03
63033;BME280;49121;38.932;-9.018;2022-08-19T11:11:31;101469.56;;;33.27;21.12
63033;BME280;49121;38.932;-9.018;2022-08-19T11:13:41;101468.38;;;33.02;20.74
63033;BME280;49121;38.932;-9.018;2022-08-19T11:16:02;101469.09;;;32.84;21.06
63033;BME280;49121;38.932;-9.018;2022-08-19T11:18:22;101472.13;;;32.81;21.84
63033;BME280;49121;38.932;-9.018;2022-08-19T11:20:41;101465.97;;;32.89;21.60
63033;BME280;49121;38.932;-9.018;2022-08-19T11:22:41;101461.59;;;33.15;21.31
63033;BME280;49121;38.932;-9.018;2022-08-19T11:24:54;101466.09;;;33.34;20.45
63033;BME280;49121;38.932;-9.018;2022-08-19T11:27:00;101467.72;;;33.27;20.23
63033;BME280;49121;38.932;-9.018;2022-08-19T11:29:03;101463.78;;;33.39;20.21
63033;BME280;49121;38.932;-9.018;2022-08-19T11:31:04;101467.00;;;33.53;21.52
63033;BME280;49121;38.932;-9.018;2022-08-19T11:33:05;101455.59;;;33.67;20.96